Time;durP1;ratioP1;P1;durP2;ratioP2;P2;SDS_P1;SDS_P2;PMS_P1;PMS_P2;Temp;Humidity;BMP_temperature;BMP_pressure;BME280_temperature;BME280_humidity;BME280_pressure;Samples;Min_cycle;Max_cycle;Signal;HPM_P1;HPM_P2
2022/08/25 00:01:22;;;;;;;;;16.00;14.00;;;;;24.82;50.86;101264.66;5090907;27;49753;-76
2022/08/25 00:03:48;;;;;;;;;17.25;13.00;;;;;24.79;51.04;101269.22;5091657;27;49589;-71
2022/08/25 00:06:14;;;;;;;;;16.50;14.50;;;;;24.75;51.10;101268.44;5091387;27;50392;-73
2022/08/25 00:08:42;;;;;;;;;17.50;16.00;;;;;24.72;51.51;101268.56;5091234;27;49996;-74
2022/08/25 00:11:12;;;;;;;;;18.00;15.00;;;;;24.70;51.75;101266.81;5091251;27;49798;-62
2022/08/25 00:13:42;;;;;;;;;16.50;16.00;;;;;24.68;52.00;101260.63;5091346;27;49833;-62
2022/08/25 00:16:12;;;;;;;;;15.00;15.00;;;;;24.65;52.13;101256.22;5090798;27;50729;-61
2022/08/25 00:18:40;;;;;;;;;16.75;16.50;;;;;24.60;52.62;101259.94;5090978;27;49969;-61
2022/08/25 00:21:05;;;;;;;;;20.50;19.50;;;;;24.61;53.00;101265.31;5090773;27;49747;-61
2022/08/25 00:23:31;;;;;;;;;14.00;13.25;;;;;24.60;53.16;101252.78;5091166;27;50252;-71
2022/08/25 00:25:56;;;;;;;;;15.25;13.00;;;;;24.56;53.51;101240.38;5090676;27;49826;-69
2022/08/25 00:28:22;;;;;;;;;16.25;14.50;;;;;24.53;53.54;101236.00;5091075;27;50001;-79
2022/08/25 00:30:48;;;;;;;;;17.50;16.75;;;;;24.51;53.65;101237.84;5090656;27;49974;-80
2022/08/25 00:33:14;;;;;;;;;17.75;16.25;;;;;24.49;53.93;101246.84;5091069;27;50392;-65
2022/08/25 00:35:41;;;;;;;;;16.75;13.00;;;;;24.36;53.63;101226.69;5090799;27;49826;-71
2022/08/25 00:38:06;;;;;;;;;18.50;16.75;;;;;24.34;54.20;101225.84;5090924;27;49702;-62
2022/08/25 00:40:32;;;;;;;;;17.50;15.75;;;;;24.40;54.40;101234.56;5090966;27;49590;-79
2022/08/25 00:42:57;;;;;;;;;16.50;15.50;;;;;24.38;54.62;101231.06;5091372;27;49616;-69
2022/08/25 00:45:23;;;;;;;;;20.50;19.00;;;;;24.34;54.58;101233.91;5090530;27;50837;-71
2022/08/25 00:47:48;;;;;;;;;14.75;14.75;;;;;24.31;54.84;101226.78;5091013;27;49777;-71
2022/08/25 00:50:16;;;;;;;;;12.00;11.50;;;;;24.28;54.55;101229.53;5091043;27;49755;-78
2022/08/25 00:52:45;;;;;;;;;15.00;13.25;;;;;24.25;54.91;101226.94;5091082;27;49828;-76
2022/08/25 00:55:38;;;;;;;;;14.50;14.50;;;;;24.21;55.34;101226.13;5090754;27;49873;-80
2022/08/25 00:58:18;;;;;;;;;11.75;11.75;;;;;24.16;55.29;101216.47;5091556;27;50282;-62
2022/08/25 01:00:49;;;;;;;;;16.75;15.50;;;;;24.11;55.92;101216.59;5094207;27;50073;-83
2022/08/25 01:03:17;;;;;;;;;14.75;13.75;;;;;24.12;55.92;101221.03;5094010;27;49620;-62
2022/08/25 01:05:44;;;;;;;;;14.75;14.25;;;;;24.05;55.79;101224.81;5094116;27;50012;-73
2022/08/25 01:08:10;;;;;;;;;13.25;11.75;;;;;24.06;55.88;101226.59;5094412;27;49750;-78
2022/08/25 01:10:40;;;;;;;;;16.50;12.50;;;;;24.05;55.88;101222.16;5094266;27;49799;-75
2022/08/25 01:13:14;;;;;;;;;11.75;11.50;;;;;24.01;56.15;101230.31;5094154;27;49872;-74
2022/08/25 01:15:40;;;;;;;;;16.50;15.00;;;;;23.97;56.37;101218.78;5086980;27;49834;-70
2022/08/25 01:18:06;;;;;;;;;13.75;12.75;;;;;23.90;56.44;101223.44;5093982;27;49718;-78
2022/08/25 01:20:33;;;;;;;;;13.00;12.75;;;;;23.93;56.27;101225.13;5094336;27;49835;-62
2022/08/25 01:22:58;;;;;;;;;14.25;14.25;;;;;23.90;56.62;101227.91;5094433;27;50194;-71
2022/08/25 01:25:36;;;;;;;;;11.25;11.25;;;;;23.87;56.55;101223.53;5094197;27;50461;-67
2022/08/25 01:28:02;;;;;;;;;12.25;11.00;;;;;23.87;56.91;101244.09;5094123;27;49765;-77
2022/08/25 01:30:28;;;;;;;;;12.00;10.00;;;;;23.84;56.88;101244.19;5093536;27;49864;-62
2022/08/25 01:32:54;;;;;;;;;15.25;14.75;;;;;23.80;57.03;101235.31;5094287;27;49814;-66
2022/08/25 01:35:19;;;;;;;;;15.00;12.75;;;;;23.78;56.94;101226.44;5093629;27;50917;-62
2022/08/25 01:37:45;;;;;;;;;13.75;13.25;;;;;23.77;57.44;101234.53;5093974;27;50002;-63
2022/08/25 01:40:11;;;;;;;;;11.00;11.00;;;;;23.68;57.21;101231.16;5093827;27;49705;-62
2022/08/25 01:42:56;;;;;;;;;12.75;12.75;;;;;23.73;57.42;101230.16;5093207;27;49769;-79
2022/08/25 01:45:22;;;;;;;;;12.00;11.00;;;;;23.68;57.50;101225.81;5093579;27;50071;-63
2022/08/25 01:47:47;;;;;;;;;13.50;12.50;;;;;23.65;57.42;101225.03;5093246;27;49821;-64
2022/08/25 01:50:12;;;;;;;;;12.50;11.25;;;;;23.62;57.48;101217.03;5093397;27;49835;-63
2022/08/25 01:52:53;;;;;;;;;13.50;13.00;;;;;23.54;57.71;101216.31;5093627;27;49994;-72
2022/08/25 01:55:19;;;;;;;;;13.25;13.25;;;;;23.48;57.80;101211.13;5093060;27;50900;-72
2022/08/25 01:57:45;;;;;;;;;14.00;11.25;;;;;23.54;58.03;101213.63;5092428;27;50020;-62
2022/08/25 02:00:12;;;;;;;;;13.25;12.50;;;;;23.52;58.14;101221.72;5092674;27;49843;-62
2022/08/25 02:02:39;;;;;;;;;14.00;14.00;;;;;23.50;57.47;101217.31;5093155;27;49826;-61
2022/08/25 02:05:05;;;;;;;;;10.75;9.75;;;;;23.47;56.78;101223.66;5093031;27;50057;-62
2022/08/25 02:07:31;;;;;;;;;13.25;13.25;;;;;23.45;56.02;101212.09;5093137;27;49873;-63
2022/08/25 02:09:56;;;;;;;;;13.25;13.25;;;;;23.47;55.12;101202.22;5092131;27;49881;-62
2022/08/25 02:12:22;;;;;;;;;13.00;13.00;;;;;23.34;55.07;101176.63;5093115;27;49771;-62
2022/08/25 02:14:47;;;;;;;;;15.25;12.50;;;;;23.45;54.21;101187.97;5092826;27;49807;-61
2022/08/25 02:17:13;;;;;;;;;11.25;9.75;;;;;23.47;53.33;101191.50;5092882;27;49644;-61
2022/08/25 02:19:38;;;;;;;;;10.75;10.75;;;;;23.50;52.18;101195.88;5093061;27;49813;-61
2022/08/25 02:22:04;;;;;;;;;11.00;11.00;;;;;23.51;51.93;101190.47;5093060;27;49786;-62
2022/08/25 02:24:30;;;;;;;;;12.25;12.25;;;;;23.54;51.23;101194.88;5092512;27;54629;-61
2022/08/25 02:26:56;;;;;;;;;14.75;14.50;;;;;23.54;51.23;101184.16;5092882;27;49783;-61
2022/08/25 02:29:22;;;;;;;;;10.00;10.00;;;;;23.56;51.08;101185.03;5092576;27;50010;-61
2022/08/25 02:31:48;;;;;;;;;9.50;9.50;;;;;23.57;51.19;101181.41;5092609;27;49791;-61
2022/08/25 02:34:14;;;;;;;;;11.75;11.75;;;;;23.54;51.09;101176.13;5092792;27;50339;-62
2022/08/25 02:36:40;;;;;;;;;11.00;10.75;;;;;23.51;50.85;101161.00;5092783;27;49958;-61
2022/08/25 02:39:09;;;;;;;;;11.50;11.50;;;;;23.52;50.90;101156.53;5092599;27;49784;-61
2022/08/25 02:41:35;;;;;;;;;14.25;14.25;;;;;23.51;50.92;101160.13;5092699;27;49908;-66
2022/08/25 02:44:02;;;;;;;;;11.50;11.50;;;;;23.52;51.08;101159.22;5092343;27;50274;-68
2022/08/25 02:46:27;;;;;;;;;11.50;9.75;;;;;23.44;51.01;101151.38;5092366;27;49758;-63
2022/08/25 02:48:54;;;;;;;;;14.25;14.25;;;;;23.43;51.16;101153.16;5092398;27;49941;-67
2022/08/25 02:51:22;;;;;;;;;11.50;11.50;;;;;23.47;50.93;101155.78;5092315;27;50121;-73
2022/08/25 02:53:47;;;;;;;;;11.50;11.50;;;;;23.46;50.92;101156.72;5092235;27;50294;-75
2022/08/25 02:56:14;;;;;;;;;9.00;9.00;;;;;23.43;50.78;101154.97;5091351;27;49897;-62
2022/08/25 02:58:41;;;;;;;;;12.25;12.00;;;;;23.42;51.20;101155.88;5092490;27;49790;-74
2022/08/25 03:01:10;;;;;;;;;14.50;12.50;;;;;23.34;50.96;101144.47;5092144;27;50170;-62
2022/08/25 03:03:39;;;;;;;;;12.25;11.25;;;;;23.40;50.80;101155.06;5091921;27;49633;-69
2022/08/25 03:06:08;;;;;;;;;12.25;10.75;;;;;23.37;50.80;101156.03;5092015;27;49887;-68
2022/08/25 03:08:34;;;;;;;;;13.75;12.00;;;;;23.37;50.97;101156.03;5091969;27;49617;-68
2022/08/25 03:10:59;;;;;;;;;12.00;12.00;;;;;23.36;50.51;101159.63;5092205;27;49722;-63
2022/08/25 03:13:25;;;;;;;;;14.50;14.50;;;;;23.34;51.28;101156.06;5091883;27;50417;-67
2022/08/25 03:15:51;;;;;;;;;11.00;11.00;;;;;23.30;51.62;101158.88;5091845;27;49749;-62
2022/08/25 03:18:16;;;;;;;;;11.75;11.75;;;;;23.30;51.67;101165.13;5092037;27;50002;-76
2022/08/25 03:20:41;;;;;;;;;13.00;12.50;;;;;23.25;51.29;101152.75;5090731;27;49799;-70
2022/08/25 03:23:07;;;;;;;;;8.50;5.50;;;;;23.21;51.18;101151.97;5091840;27;50301;-62
2022/08/25 03:28:17;;;;;;;;;10.25;10.00;;;;;23.18;50.98;101144.00;5092066;27;49627;-77
2022/08/25 03:30:43;;;;;;;;;18.25;16.00;;;;;23.17;50.93;101142.25;5091524;27;49832;-67
2022/08/25 03:33:09;;;;;;;;;16.75;12.25;;;;;23.13;50.99;101129.84;5091610;27;50239;-62
2022/08/25 03:35:35;;;;;;;;;15.00;13.75;;;;;23.16;50.88;101124.41;5091765;27;49788;-66
2022/08/25 03:38:00;;;;;;;;;15.25;14.75;;;;;23.14;51.07;101111.06;5091753;27;49835;-67
2022/08/25 03:40:27;;;;;;;;;12.75;11.00;;;;;23.16;51.16;101116.38;5091756;27;49921;-62
2022/08/25 03:42:55;;;;;;;;;14.50;12.25;;;;;23.07;51.35;101108.59;5091519;27;49659;-61
2022/08/25 03:45:22;;;;;;;;;12.00;12.00;;;;;23.08;51.51;101105.00;5091336;27;49994;-61
2022/08/25 03:47:49;;;;;;;;;14.50;13.00;;;;;23.03;51.28;101099.75;5091311;27;49813;-61
2022/08/25 03:50:16;;;;;;;;;13.75;12.75;;;;;23.04;51.47;101103.28;5085259;27;49984;-61
2022/08/25 03:52:41;;;;;;;;;12.25;12.25;;;;;23.04;51.66;101103.28;5084649;27;49642;-62
2022/08/25 03:55:10;;;;;;;;;14.75;14.00;;;;;23.03;51.22;101106.91;5091130;27;49883;-61
2022/08/25 03:57:35;;;;;;;;;14.25;13.00;;;;;23.02;51.42;101108.69;5091354;27;49829;-61
2022/08/25 04:00:02;;;;;;;;;11.50;11.50;;;;;22.95;51.55;101098.16;5091283;27;49758;-62
2022/08/25 04:02:27;;;;;;;;;13.00;11.75;;;;;22.95;51.73;101115.13;5090758;27;52084;-61
2022/08/25 04:04:52;;;;;;;;;12.50;11.50;;;;;22.92;52.11;101125.91;5090379;27;49814;-61
2022/08/25 04:07:18;;;;;;;;;12.25;12.25;;;;;22.88;52.21;101134.06;5091415;27;49606;-61
2022/08/25 04:09:44;;;;;;;;;14.75;13.25;;;;;22.85;52.40;101137.66;5091486;27;49979;-61
2022/08/25 04:12:09;;;;;;;;;15.25;12.25;;;;;22.79;52.93;101141.34;5090731;27;50443;-63
2022/08/25 04:14:35;;;;;;;;;12.50;11.00;;;;;22.73;53.08;101146.84;5090974;27;49719;-61
2022/08/25 04:17:01;;;;;;;;;14.25;11.25;;;;;22.69;53.28;101133.59;5090775;27;49523;-61
2022/08/25 04:19:26;;;;;;;;;13.75;11.75;;;;;22.66;52.93;101131.84;5091113;27;49945;-61
2022/08/25 04:21:52;;;;;;;;;10.50;10.50;;;;;22.61;53.24;101138.22;5090696;27;61326;-61
2022/08/25 04:24:18;;;;;;;;;13.75;13.75;;;;;22.30;53.26;101084.53;5091122;27;49843;-61
2022/08/25 04:26:49;;;;;;;;;13.25;12.25;;;;;22.55;53.15;101142.78;5091294;27;49792;-61
2022/08/25 04:29:17;;;;;;;;;13.50;11.50;;;;;22.54;53.13;101138.34;5091005;27;49953;-61
2022/08/25 04:31:45;;;;;;;;;14.25;12.00;;;;;22.41;53.18;101122.63;5089804;27;50495;-61
2022/08/25 04:34:12;;;;;;;;;13.50;11.75;;;;;22.50;53.09;101150.06;5090796;27;49923;-61
2022/08/25 04:36:37;;;;;;;;;14.50;14.50;;;;;22.48;53.31;101142.94;5090841;27;49903;-61
2022/08/25 04:39:03;;;;;;;;;12.75;11.50;;;;;22.46;53.55;101145.66;5090201;27;49608;-61
2022/08/25 04:41:30;;;;;;;;;11.25;10.00;;;;;22.44;53.66;101147.50;5090607;27;50630;-62
2022/08/25 04:43:56;;;;;;;;;11.25;11.25;;;;;22.43;53.66;101155.56;5089823;27;49521;-62
2022/08/25 04:46:24;;;;;;;;;14.75;12.25;;;;;22.40;54.11;101151.16;5090516;27;49795;-61
2022/08/25 04:48:53;;;;;;;;;13.00;13.00;;;;;22.30;53.80;101146.06;5090796;27;49973;-62
2022/08/25 04:51:22;;;;;;;;;14.75;12.75;;;;;22.33;54.19;101162.03;5088421;27;51775;-61
2022/08/25 04:53:48;;;;;;;;;13.25;13.25;;;;;22.30;54.16;101162.09;5090306;27;49753;-61
2022/08/25 04:56:15;;;;;;;;;12.50;12.50;;;;;22.25;54.43;101165.75;5090396;27;49669;-61
2022/08/25 04:58:41;;;;;;;;;11.50;10.50;;;;;22.27;54.30;101171.06;5090965;27;49926;-61
2022/08/25 05:01:16;;;;;;;;;11.50;11.50;;;;;22.23;54.35;101169.38;5090099;27;49652;-63
2022/08/25 05:03:42;;;;;;;;;14.25;13.50;;;;;22.24;54.53;101171.13;5090536;27;49746;-61
2022/08/25 05:06:08;;;;;;;;;13.25;13.25;;;;;22.22;54.73;101181.84;5090409;27;49892;-61
2022/08/25 05:08:34;;;;;;;;;13.75;13.00;;;;;22.19;54.91;101189.03;5090433;27;49818;-61
2022/08/25 05:11:08;;;;;;;;;14.50;14.50;;;;;22.16;55.17;101183.75;5089906;27;50609;-77
2022/08/25 05:13:34;;;;;;;;;14.75;14.00;;;;;22.07;55.29;101171.47;5090122;27;49785;-76
2022/08/25 05:16:01;;;;;;;;;18.50;14.75;;;;;22.12;55.52;101188.31;5071503;27;50010;-66
2022/08/25 05:18:28;;;;;;;;;13.00;13.00;;;;;22.12;55.90;101193.66;5090459;27;49573;-69
2022/08/25 05:20:55;;;;;;;;;12.00;11.50;;;;;22.09;56.11;101191.03;5090339;27;49660;-62
2022/08/25 05:23:23;;;;;;;;;15.50;14.00;;;;;22.09;57.08;101195.50;5092926;27;49830;-76
2022/08/25 05:25:50;;;;;;;;;15.25;13.75;;;;;22.09;57.76;101199.03;5090386;27;49774;-74
2022/08/25 05:28:17;;;;;;;;;17.25;16.00;;;;;22.09;58.33;101200.84;5092715;27;49623;-66
2022/08/25 05:30:43;;;;;;;;;17.50;16.25;;;;;22.09;58.96;101201.72;5089413;27;50600;-66
2022/08/25 05:33:10;;;;;;;;;15.00;14.50;;;;;22.04;59.20;101190.22;5089898;27;49742;-64
2022/08/25 05:35:35;;;;;;;;;16.25;14.75;;;;;22.04;59.40;101186.66;5090258;27;50038;-62
2022/08/25 05:38:02;;;;;;;;;14.25;13.00;;;;;22.04;60.04;101192.00;5090243;27;49861;-62
2022/08/25 05:40:28;;;;;;;;;16.50;15.75;;;;;22.10;60.40;101200.84;5095567;27;49673;-61
2022/08/25 05:42:54;;;;;;;;;13.75;13.75;;;;;22.10;60.08;101194.56;5092788;27;49712;-62
2022/08/25 05:45:19;;;;;;;;;16.75;15.00;;;;;22.11;60.64;101194.56;5073114;27;49842;-72
2022/08/25 05:47:44;;;;;;;;;17.00;15.25;;;;;22.12;60.94;101198.13;5093095;27;50138;-66
2022/08/25 05:50:10;;;;;;;;;20.00;16.75;;;;;22.06;61.08;101177.69;5094475;27;50523;-71
2022/08/25 05:52:36;;;;;;;;;16.75;16.00;;;;;22.18;61.25;101196.19;5093259;27;49810;-66
2022/08/25 05:55:02;;;;;;;;;18.25;18.25;;;;;22.12;60.85;101180.28;5093408;27;49690;-66
2022/08/25 05:57:28;;;;;;;;;15.00;15.00;;;;;22.20;60.83;101188.16;5093072;27;49629;-63
2022/08/25 05:59:53;;;;;;;;;18.25;15.50;;;;;22.06;61.41;101166.13;5092951;27;52983;-65
2022/08/25 06:05:02;;;;;;;;;18.25;17.75;;;;;22.25;61.33;101196.94;5093098;27;49861;-66
2022/08/25 06:07:28;;;;;;;;;17.25;17.25;;;;;22.28;61.46;101195.09;5093386;27;50072;-65
2022/08/25 06:09:54;;;;;;;;;16.25;16.25;;;;;22.31;61.17;101187.94;5092768;27;49889;-62
2022/08/25 06:12:20;;;;;;;;;16.50;16.50;;;;;22.39;61.21;101185.94;5086891;27;49886;-65
2022/08/25 06:14:47;;;;;;;;;17.25;15.50;;;;;22.42;61.59;101184.13;5092101;27;49819;-63
2022/08/25 06:17:13;;;;;;;;;18.50;17.00;;;;;22.49;61.04;101184.88;5092821;27;50046;-64
2022/08/25 06:19:38;;;;;;;;;14.00;13.75;;;;;22.54;57.69;101185.63;5092521;27;50297;-66
2022/08/25 06:22:03;;;;;;;;;23.00;19.75;;;;;22.61;57.12;101187.28;5092175;27;52873;-66
2022/08/25 06:24:29;;;;;;;;;16.50;14.00;;;;;22.66;55.28;101188.03;5092726;27;49974;-72
2022/08/25 06:26:55;;;;;;;;;18.25;15.00;;;;;22.64;54.27;101171.13;5073999;27;50107;-69
2022/08/25 06:29:21;;;;;;;;;18.50;16.00;;;;;22.80;53.87;101179.72;5091135;27;49783;-62
2022/08/25 06:31:48;;;;;;;;;17.25;13.00;;;;;22.82;52.93;101178.75;5092458;27;49772;-61
2022/08/25 06:34:15;;;;;;;;;17.25;14.50;;;;;22.93;52.04;101183.88;5092064;27;50038;-61
2022/08/25 06:36:40;;;;;;;;;14.00;12.25;;;;;23.02;51.87;101193.50;5092555;27;49715;-73
2022/08/25 06:39:05;;;;;;;;;17.25;16.25;;;;;22.97;51.88;101169.53;5092168;27;49729;-73
2022/08/25 06:41:31;;;;;;;;;15.50;15.00;;;;;23.18;51.70;101197.59;5094166;27;49613;-62
2022/08/25 06:43:56;;;;;;;;;16.25;14.75;;;;;23.27;51.52;101185.75;5092218;27;49657;-68
2022/08/25 06:46:29;;;;;;;;;16.50;16.50;;;;;23.36;50.99;101181.06;5092875;27;49623;-69
2022/08/25 06:48:56;;;;;;;;;16.75;16.00;;;;;23.35;50.58;101168.56;5092643;27;49863;-70
2022/08/25 06:51:24;;;;;;;;;16.25;16.25;;;;;23.49;50.58;101181.59;5091910;27;49938;-71
2022/08/25 06:53:51;;;;;;;;;15.50;12.25;;;;;23.56;50.88;101182.34;5092092;27;49759;-71
2022/08/25 06:56:18;;;;;;;;;14.00;13.00;;;;;23.63;50.40;101182.16;5091079;27;49913;-63
2022/08/25 06:58:44;;;;;;;;;17.25;16.50;;;;;23.64;50.26;101188.38;5091516;27;50461;-63
2022/08/25 07:01:27;;;;;;;;;16.75;15.75;;;;;23.72;49.98;101190.88;5091332;27;49787;-62
2022/08/25 07:03:58;;;;;;;;;18.75;17.25;;;;;23.74;49.65;101195.28;5088481;27;49821;-72
2022/08/25 07:06:25;;;;;;;;;13.50;13.25;;;;;23.79;49.53;101196.03;5092052;27;50044;-74
2022/08/25 07:08:51;;;;;;;;;17.25;15.75;;;;;23.81;49.41;101194.19;5091264;27;50032;-63
2022/08/25 07:11:18;;;;;;;;;16.50;15.00;;;;;23.56;49.40;101140.34;5089518;27;53390;-64
2022/08/25 07:13:44;;;;;;;;;17.75;15.00;;;;;23.96;49.20;101198.25;5085573;27;50046;-62
2022/08/25 07:16:10;;;;;;;;;16.75;15.00;;;;;24.02;49.26;101191.81;5091492;27;49661;-61
2022/08/25 07:18:35;;;;;;;;;17.00;16.25;;;;;24.15;49.16;101196.81;5091372;27;50031;-62
2022/08/25 07:21:00;;;;;;;;;14.50;14.00;;;;;24.21;48.43;101193.06;5091903;27;49935;-62
2022/08/25 07:23:27;;;;;;;;;21.00;18.00;;;;;24.30;48.09;101195.50;5090843;27;49938;-61
2022/08/25 07:25:53;;;;;;;;;16.50;15.50;;;;;24.34;47.65;101196.34;5091664;27;49895;-61
2022/08/25 07:28:21;;;;;;;;;26.50;19.00;;;;;24.36;47.81;101198.03;5091436;27;49749;-62
2022/08/25 07:30:46;;;;;;;;;21.75;17.75;;;;;24.41;48.16;101203.25;5090634;27;49667;-62
2022/08/25 07:33:12;;;;;;;;;19.75;17.75;;;;;24.13;47.64;101146.84;5090008;27;49893;-69
2022/08/25 07:35:38;;;;;;;;;15.00;14.50;;;;;24.56;48.09;101202.81;5090676;27;49743;-70
2022/08/25 07:38:06;;;;;;;;;17.75;16.25;;;;;24.62;47.54;101199.94;5095970;27;50563;-65
2022/08/25 07:40:35;;;;;;;;;23.25;17.75;;;;;24.65;47.21;101193.59;5093680;27;49913;-69
2022/08/25 07:43:04;;;;;;;;;16.25;15.00;;;;;24.73;47.20;101203.19;5085198;27;49982;-67
2022/08/25 07:45:32;;;;;;;;;17.00;17.00;;;;;24.78;47.11;101193.16;5091577;27;49779;-70
2022/08/25 07:48:11;;;;;;;;;20.50;18.00;;;;;24.85;46.76;101188.50;5093589;27;50631;-66
2022/08/25 07:50:41;;;;;;;;;19.00;15.75;;;;;24.95;46.69;101192.66;5092845;27;49997;-67
2022/08/25 07:53:07;;;;;;;;;20.50;19.00;;;;;24.99;46.67;101188.91;5091994;27;49722;-66
2022/08/25 07:55:35;;;;;;;;;15.00;15.00;;;;;25.09;46.39;101182.38;5090735;27;49786;-73
2022/08/25 07:58:01;;;;;;;;;19.75;17.75;;;;;25.17;45.43;101183.91;5092596;27;50856;-67
2022/08/25 08:00:29;;;;;;;;;14.00;13.25;;;;;25.17;45.41;101170.47;5094518;22;50000;-81
2022/08/25 08:02:55;;;;;;;;;26.00;21.25;;;;;25.29;45.05;101153.97;5050097;28;50170;-76
2022/08/25 08:05:21;;;;;;;;;19.00;14.00;;;;;25.46;43.88;101172.19;5056575;28;49971;-76
2022/08/25 08:07:46;;;;;;;;;19.25;17.50;;;;;25.55;43.23;101167.38;5050480;28;50143;-77
2022/08/25 08:10:14;;;;;;;;;14.50;14.50;;;;;25.81;43.67;101189.81;5050388;28;55175;-81
2022/08/25 08:12:40;;;;;;;;;14.75;13.50;;;;;26.01;43.81;101194.47;5052074;28;49791;-76
2022/08/25 08:15:06;;;;;;;;;13.00;13.00;;;;;26.12;42.71;101201.22;5038932;28;49768;-78
2022/08/25 08:17:31;;;;;;;;;18.50;14.00;;;;;26.19;42.06;101218.03;5049325;28;50800;-81
2022/08/25 08:19:57;;;;;;;;;13.75;12.25;;;;;26.31;42.68;101224.75;5055685;28;49653;-73
2022/08/25 08:22:23;;;;;;;;;15.50;15.25;;;;;26.19;43.56;101175.84;5050544;28;49605;-75
2022/08/25 08:24:49;;;;;;;;;15.75;15.00;;;;;26.40;43.62;101193.03;5055004;28;49701;-72
2022/08/25 08:27:14;;;;;;;;;16.75;14.75;;;;;26.30;43.68;101174.56;5063024;28;49900;-71
2022/08/25 08:29:40;;;;;;;;;16.75;15.00;;;;;26.40;43.94;101202.94;5067577;28;49562;-70
2022/08/25 08:32:09;;;;;;;;;16.50;16.50;;;;;26.40;44.72;101194.84;5068411;28;49556;-76
2022/08/25 08:34:35;;;;;;;;;17.50;16.75;;;;;26.33;44.56;101172.63;5063739;28;49296;-74
2022/08/25 08:37:02;;;;;;;;;19.25;18.25;;;;;26.61;44.93;101210.16;5059700;28;51633;-75
2022/08/25 08:39:28;;;;;;;;;17.75;15.75;;;;;26.69;44.87;101226.91;5065267;28;49776;-80
2022/08/25 08:42:34;;;;;;;;;17.00;16.25;;;;;26.48;44.62;101158.63;5066997;28;49603;-77
2022/08/25 08:45:27;;;;;;;;;13.00;13.00;;;;;26.88;44.36;101221.69;5063575;28;49887;-79
2022/08/25 08:48:08;;;;;;;;;16.00;15.00;;;;;25.48;43.96;100969.63;5045636;28;51238;-79
2022/08/25 08:50:51;;;;;;;;;15.25;15.25;;;;;26.79;43.29;101155.59;5065250;28;49494;-80
2022/08/25 08:53:26;;;;;;;;;14.75;14.75;;;;;26.43;43.44;101106.75;5067481;28;49395;-79
2022/08/25 08:55:59;;;;;;;;;15.50;13.75;;;;;27.02;43.18;101196.88;5073217;28;49758;-79
2022/08/25 08:58:46;;;;;;;;;16.75;14.75;;;;;27.16;43.14;101223.31;5046039;28;51557;-79
2022/08/25 09:01:17;;;;;;;;;12.75;12.75;;;;;26.67;42.84;101141.75;5062148;28;49385;-78
2022/08/25 09:03:53;;;;;;;;;15.00;13.75;;;;;26.72;42.40;101154.06;5065882;28;49392;-78
2022/08/25 09:06:35;;;;;;;;;14.75;13.00;;;;;27.13;42.86;101220.75;5065734;28;49612;-77
2022/08/25 09:09:03;;;;;;;;;13.00;13.00;;;;;27.08;42.00;101219.09;5062491;28;50374;-79
2022/08/25 09:11:54;;;;;;;;;14.75;14.75;;;;;26.71;42.34;101164.91;5065826;28;49482;-80
2022/08/25 09:14:37;;;;;;;;;18.50;14.75;;;;;27.21;41.24;101235.66;5067917;28;49350;-79
2022/08/25 09:17:04;;;;;;;;;16.75;16.75;;;;;27.23;42.74;101228.41;5067579;28;49371;-78
2022/08/25 09:19:48;;;;;;;;;11.75;11.50;;;;;27.20;42.21;101220.41;5070704;28;49741;-78
2022/08/25 09:22:22;;;;;;;;;16.50;14.00;;;;;26.60;42.67;101116.00;5070892;28;49401;-77
2022/08/25 09:25:15;;;;;;;;;14.50;14.50;;;;;27.21;42.79;101227.56;5070788;28;49504;-77
2022/08/25 09:28:28;;;;;;;;;14.75;14.75;;;;;27.17;41.95;101217.84;5070744;28;49386;-75
2022/08/25 09:31:01;;;;;;;;;10.50;10.50;;;;;27.23;42.06;101228.41;5006557;28;49986;-75
2022/08/25 09:33:30;;;;;;;;;13.00;11.50;;;;;26.97;41.65;101172.81;5005438;28;49561;-78
2022/08/25 09:35:56;;;;;;;;;9.50;9.50;;;;;26.32;42.04;101073.97;5041749;28;49629;-70
2022/08/25 09:38:23;;;;;;;;;14.00;13.75;;;;;26.00;42.09;101015.19;5067201;28;49776;-73
2022/08/25 09:40:53;;;;;;;;;13.25;11.75;;;;;27.32;41.73;101219.94;5070356;28;50719;-73
2022/08/25 09:43:30;;;;;;;;;8.50;7.50;;;;;27.35;41.30;101224.31;5066736;28;49560;-73
2022/08/25 09:46:01;;;;;;;;;11.00;10.75;;;;;27.39;40.95;101225.94;5070100;28;49382;-76
2022/08/25 09:48:41;;;;;;;;;10.00;10.00;;;;;27.03;41.13;101177.13;5065575;28;49637;-73
2022/08/25 09:51:18;;;;;;;;;10.50;10.00;;;;;27.39;40.36;101225.94;5068633;28;50885;-72
2022/08/25 09:53:58;;;;;;;;;10.25;10.25;;;;;26.83;40.93;101134.81;5070168;28;49312;-73
2022/08/25 09:56:27;;;;;;;;;12.75;10.50;;;;;26.74;40.32;101103.75;5069017;28;49274;-73
2022/08/25 09:58:54;;;;;;;;;9.25;7.75;;;;;26.20;40.29;101024.22;5068660;28;49550;-73
2022/08/25 10:01:21;;;;;;;;;10.75;10.75;;;;;27.29;40.01;101178.72;5068391;28;49641;-73
2022/08/25 10:03:54;;;;;;;;;11.25;9.00;;;;;26.98;40.54;101107.22;5070452;28;49303;-75
2022/08/25 10:06:21;;;;;;;;;8.75;8.00;;;;;26.70;40.12;101044.66;5069980;28;49195;-75
2022/08/25 10:08:46;;;;;;;;;10.75;10.75;;;;;27.70;40.63;101198.59;5070147;28;49622;-74
2022/08/25 10:11:27;;;;;;;;;10.00;9.00;;;;;27.74;40.41;101208.28;5057072;28;49856;-70
2022/08/25 10:14:06;;;;;;;;;12.50;11.50;;;;;27.59;39.46;101190.03;5052213;28;49795;-68
2022/08/25 10:16:32;;;;;;;;;9.00;8.25;;;;;27.38;39.43;101129.81;5051719;28;49724;-70
2022/08/25 10:19:08;;;;;;;;;4.75;4.00;;;;;27.79;38.38;101187.38;5045504;28;49780;-71
2022/08/25 10:21:37;;;;;;;;;10.50;9.75;;;;;27.85;38.88;101179.00;5051610;28;50749;-71
2022/08/25 10:24:04;;;;;;;;;9.75;9.00;;;;;27.70;38.62;101141.03;5052239;28;49996;-70
2022/08/25 10:27:11;;;;;;;;;11.00;11.00;;;;;28.02;39.03;101172.88;5052020;28;49722;-71
2022/08/25 10:30:04;;;;;;;;;8.00;8.00;;;;;28.08;38.79;101177.97;5008260;28;49811;-70
2022/08/25 10:32:49;;;;;;;;;10.00;9.00;;;;;28.03;38.09;101146.75;5048341;28;49877;-70
2022/08/25 10:35:19;;;;;;;;;9.50;8.75;;;;;28.22;38.16;101171.97;5051883;28;49905;-69
2022/08/25 10:38:14;;;;;;;;;7.50;7.50;;;;;28.26;37.19;101162.75;5052053;28;50004;-75
2022/08/25 10:40:52;;;;;;;;;8.25;8.00;;;;;28.07;37.84;101114.16;5051396;28;49656;-70
2022/08/25 10:43:34;;;;;;;;;12.00;12.00;;;;;28.19;37.00;101112.72;5051719;28;50509;-69
2022/08/25 10:45:59;;;;;;;;;10.75;10.25;;;;;28.38;36.20;101143.34;5051408;28;49992;-73
2022/08/25 10:48:54;;;;;;;;;13.00;11.75;;;;;28.45;36.45;101146.59;5051666;28;49736;-70
2022/08/25 10:51:41;;;;;;;;;8.75;8.75;;;;;28.51;35.47;101147.19;5052726;28;49951;-84
2022/08/25 10:54:28;;;;;;;;;11.25;9.00;;;;;28.49;35.57;101140.13;5051496;28;50737;-82
2022/08/25 10:57:21;;;;;;;;;10.00;9.00;;;;;28.63;34.90;101145.72;5050366;28;49594;-71
2022/08/25 11:00:06;;;;;;;;;8.50;8.50;;;;;28.69;34.37;101147.28;5051246;28;49637;-73
2022/08/25 11:02:57;;;;;;;;;12.00;12.00;;;;;28.79;34.69;101145.88;5051323;28;49977;-72
2022/08/25 11:05:29;;;;;;;;;10.75;9.00;;;;;28.64;35.25;101117.75;5051234;28;50420;-70
2022/08/25 11:08:07;;;;;;;;;11.25;9.50;;;;;28.96;34.57;101148.66;5032956;28;49693;-69
2022/08/25 11:10:58;;;;;;;;;7.00;6.50;;;;;29.01;33.92;101145.72;5050902;28;49720;-68
2022/08/25 11:13:47;;;;;;;;;10.50;10.50;;;;;29.08;34.38;101145.34;5057524;28;49879;-67
2022/08/25 11:16:42;;;;;;;;;10.00;10.00;;;;;29.14;33.84;101138.72;5050028;28;50794;-68
2022/08/25 11:19:20;;;;;;;;;13.00;12.00;;;;;29.08;35.06;101114.72;5049344;28;49740;-67
2022/08/25 11:22:05;;;;;;;;;11.75;11.75;;;;;29.19;35.15;101133.09;5050740;28;49981;-71
2022/08/25 11:24:39;;;;;;;;;9.50;8.50;;;;;29.18;34.77;101112.44;5051192;28;49966;-69
2022/08/25 11:27:11;;;;;;;;;10.00;10.00;;;;;29.28;35.24;101125.41;5050210;28;49752;-68